F.r. Bigelow — WDB8153 — position and weather

sailwx.info

Track history (hours):
 
Tides and Currents Weather Stations Pressure Air Temp Water Temp Dewpoint Dewpoint Depression Visibility Wind Speed Wind Dir Waves Ship Positions

F.r. Bigelow

Owner: INGRAM BARGE COMPANY, Nashville, TN. More information available from US FCC via Universal Licensing System and Coast Guard Vessel Documentation Center.

Last reported at 2017-May-30 08:44 UTC. Time now 2017-Jun-25 17:19 UTC.
Position N 29°57' W 090°13'.
Warning: this ship's position is 26 days out of date.

Length 46 m; draft 2.8 m.

Type: Towing. MMSI: 366953890.

Date/timePositionNaut miles runAvg speedWind from/ knotsBaromVisibWave heightAir tempDewpointWater temp
2017-May-30 08:44N 29°57' W 090°13'4 9.6
2017-May-30 08:19N 29°57' W 090°18'3 9.7
2017-May-30 08:00N 29°56' W 090°21'0 0.0
2017-May-30 06:42N 29°56' W 090°21'0 0.0
2017-May-30 06:29N 29°56' W 090°21'0 0.1
2017-May-30 05:51N 29°56' W 090°21'2 6.1
2017-May-30 05:29N 29°57' W 090°23'910.9
2017-May-30 04:42N 30°03' W 090°31'1 4.9
2017-May-30 04:27N 30°03' W 090°32'1 0.9
2017-May-30 03:50N 30°03' W 090°32'0 0.1
2017-May-30 03:20N 30°03' W 090°32'0 0.0
2017-May-30 01:29N 30°03' W 090°32'1 0.1
2017-May-29 15:56N 30°03' W 090°33'0 0.0
2017-May-29 15:29N 30°03' W 090°33'1 0.5
2017-May-29 13:35N 30°03' W 090°32'  
2017-May-26 06:23N 29°56' W 090°21'  
Track history (hours):
 
Tides and Currents Weather Stations Pressure Air Temp Water Temp Dewpoint Dewpoint Depression Visibility Wind Speed Wind Dir Waves Ship Positions

F.r. Bigelow

Owner: INGRAM BARGE COMPANY, Nashville, TN. More information available from US FCC via Universal Licensing System and Coast Guard Vessel Documentation Center.

Last reported at 2017-May-30 08:44 UTC. Time now 2017-Jun-25 17:19 UTC.
Position N 29°57' W 090°13'.
Warning: this ship's position is 26 days out of date.

Length 46 m; draft 2.8 m.

Type: Towing. MMSI: 366953890.

Date/timePositionNaut miles runAvg speedWind from/ knotsBaromVisibWave heightAir tempDewpointWater temp
2017-May-30 08:44N 29°57' W 090°13'4 9.6
2017-May-30 08:19N 29°57' W 090°18'3 9.7
2017-May-30 08:00N 29°56' W 090°21'0 0.0
2017-May-30 06:42N 29°56' W 090°21'0 0.0
2017-May-30 06:29N 29°56' W 090°21'0 0.1
2017-May-30 05:51N 29°56' W 090°21'2 6.1
2017-May-30 05:29N 29°57' W 090°23'910.9
2017-May-30 04:42N 30°03' W 090°31'1 4.9
2017-May-30 04:27N 30°03' W 090°32'1 0.9
2017-May-30 03:50N 30°03' W 090°32'0 0.1
2017-May-30 03:20N 30°03' W 090°32'0 0.0
2017-May-30 01:29N 30°03' W 090°32'1 0.1
2017-May-29 15:56N 30°03' W 090°33'0 0.0
2017-May-29 15:29N 30°03' W 090°33'1 0.5
2017-May-29 13:35N 30°03' W 090°32'  
2017-May-26 06:23N 29°56' W 090°21'  

Dump ship's entire track history